Time;durP1;ratioP1;P1;durP2;ratioP2;P2;SDS_P1;SDS_P2;PMS_P1;PMS_P2;Temp;Humidity;BMP_temperature;BMP_pressure;BME280_temperature;BME280_humidity;BME280_pressure;Samples;Min_cycle;Max_cycle;Signal;HPM_P1;HPM_P2
2023/01/21 00:01:23;;;;;;;3.50;1.60;;;;;;;0.71;100.00;99617.98;1396411;88;22421;-77
2023/01/21 00:03:49;;;;;;;2.30;1.40;;;;;;;0.72;100.00;99620.98;1408986;88;22449;-77
2023/01/21 00:06:16;;;;;;;3.03;1.80;;;;;;;0.74;100.00;99623.47;1396609;88;21561;-78
2023/01/21 00:08:42;;;;;;;3.27;1.87;;;;;;;0.74;100.00;99620.86;1396167;88;21507;-79
2023/01/21 00:11:13;;;;;;;3.47;1.60;;;;;;;0.70;100.00;99618.11;1472725;88;21665;-78
2023/01/21 00:13:40;;;;;;;1.75;1.20;;;;;;;0.66;100.00;99616.16;1452684;88;21899;-77
2023/01/21 00:16:07;;;;;;;4.57;1.43;;;;;;;0.53;100.00;99616.64;1473116;88;22339;-79
2023/01/21 00:18:34;;;;;;;2.93;1.90;;;;;;;0.50;100.00;99618.16;1471518;88;21571;-79
2023/01/21 00:21:00;;;;;;;1.70;1.20;;;;;;;0.52;100.00;99621.47;1470149;88;22769;-79
2023/01/21 00:23:27;;;;;;;3.20;2.20;;;;;;;0.51;100.00;99629.75;1456970;88;21601;-79
2023/01/21 00:26:01;;;;;;;1.90;1.70;;;;;;;0.51;100.00;99629.75;1470881;88;21591;-79
2023/01/21 00:28:30;;;;;;;2.77;1.50;;;;;;;0.50;100.00;99632.00;1470389;88;21590;-80
2023/01/21 00:31:01;;;;;;;2.17;1.60;;;;;;;0.45;100.00;99639.28;1475066;88;22714;-80
2023/01/21 00:33:28;;;;;;;;;;;;;;;0.49;100.00;99647.27;1471869;88;21628;-80
2023/01/21 00:36:01;;;;;;;3.83;2.00;;;;;;;0.51;100.00;99654.96;1476200;88;20306;-81
2023/01/21 00:38:27;;;;;;;3.90;2.10;;;;;;;0.54;100.00;99658.19;1471234;88;22053;-81
2023/01/21 00:41:08;;;;;;;2.03;1.60;;;;;;;0.56;100.00;99662.00;1469744;88;22388;-81
2023/01/21 00:43:35;;;;;;;3.43;2.00;;;;;;;0.55;100.00;99660.34;1473285;88;21526;-80
2023/01/21 00:46:01;;;;;;;3.00;2.10;;;;;;;0.61;100.00;99665.14;1477381;88;21702;-80
2023/01/21 00:48:27;;;;;;;2.57;1.63;;;;;;;0.62;100.00;99666.80;1469068;88;21540;-81
2023/01/21 00:50:57;;;;;;;2.37;1.53;;;;;;;0.62;100.00;99670.23;1471657;88;21487;-81
2023/01/21 00:53:24;;;;;;;1.33;1.10;;;;;;;0.65;100.00;99673.10;1468166;88;21836;-81
2023/01/21 00:55:50;;;;;;;1.80;1.40;;;;;;;0.66;100.00;99668.25;1472167;88;21597;-81
2023/01/21 00:58:17;;;;;;;1.90;1.50;;;;;;;0.68;100.00;99678.10;1470472;88;22441;-78
2023/01/21 01:00:43;;;;;;;2.93;2.03;;;;;;;0.69;100.00;99678.45;1472947;88;21659;-80
2023/01/21 01:03:10;;;;;;;5.07;3.20;;;;;;;0.69;100.00;99681.06;1471201;88;21561;-80
2023/01/21 01:05:36;;;;;;;4.93;2.13;;;;;;;0.71;100.00;99686.19;1480454;88;21857;-80
2023/01/21 01:08:03;;;;;;;5.23;2.83;;;;;;;0.72;100.00;99690.45;1467674;88;21589;-78
2023/01/21 01:10:29;;;;;;;3.77;2.27;;;;;;;0.74;100.00;99692.02;1476420;88;21709;-78
2023/01/21 01:12:55;;;;;;;5.27;2.83;;;;;;;0.76;100.00;99691.45;1472674;88;21774;-79
2023/01/21 01:15:21;;;;;;;11.23;5.50;;;;;;;0.74;100.00;99697.22;1471741;88;21659;-80
2023/01/21 01:17:47;;;;;;;6.40;4.10;;;;;;;0.73;100.00;99698.64;1469297;88;23162;-79
2023/01/21 01:20:13;;;;;;;6.43;3.80;;;;;;;0.72;100.00;99704.33;1440315;88;21643;-78
2023/01/21 01:22:39;;;;;;;8.50;4.50;;;;;;;0.72;100.00;99704.33;1470493;88;22303;-79
2023/01/21 01:25:06;;;;;;;7.73;3.77;;;;;;;0.74;100.00;99707.64;1473358;88;22369;-78
2023/01/21 01:27:32;;;;;;;8.47;5.53;;;;;;;0.79;100.00;99708.17;1460876;88;21767;-79
2023/01/21 01:29:58;;;;;;;5.43;3.80;;;;;;;0.81;100.00;99718.03;1470155;88;22644;-78
2023/01/21 01:32:24;;;;;;;7.33;5.00;;;;;;;0.82;100.00;99710.58;1469930;88;21684;-79
2023/01/21 01:34:50;;;;;;;6.73;4.73;;;;;;;0.86;100.00;99712.50;1477299;88;21574;-78
2023/01/21 01:37:17;;;;;;;7.20;4.70;;;;;;;0.88;100.00;99711.94;1470117;88;22086;-79
2023/01/21 01:39:43;;;;;;;7.60;3.93;;;;;;;0.85;100.00;99701.25;1475037;88;21664;-78
2023/01/21 01:42:16;;;;;;;9.57;4.07;;;;;;;0.83;100.00;99703.11;1465038;88;21741;-78
2023/01/21 01:44:59;;;;;;;9.00;4.83;;;;;;;0.80;100.00;99699.41;1481348;88;21539;-78
2023/01/21 01:47:30;;;;;;;7.97;5.77;;;;;;;0.79;100.00;99702.97;1468392;88;21555;-79
2023/01/21 01:49:58;;;;;;;10.43;5.67;;;;;;;0.77;100.00;99691.80;1466001;88;21692;-81
2023/01/21 01:52:26;;;;;;;9.90;4.80;;;;;;;0.83;100.00;99695.77;1471087;88;21670;-80
2023/01/21 01:54:56;;;;;;;12.57;6.20;;;;;;;0.87;100.00;99701.16;1467551;88;22376;-80
2023/01/21 01:57:28;;;;;;;6.67;4.33;;;;;;;0.92;100.00;99711.25;1473322;88;21639;-79
2023/01/21 01:59:54;;;;;;;7.87;4.73;;;;;;;0.92;100.00;99718.59;1474959;88;21776;-79
2023/01/21 02:02:20;;;;;;;12.23;6.30;;;;;;;0.91;100.00;99715.63;1472390;88;21787;-79
2023/01/21 02:04:55;;;;;;;9.23;6.37;;;;;;;0.90;100.00;99717.88;1469810;88;21707;-79
2023/01/21 02:07:25;;;;;;;10.40;6.50;;;;;;;0.87;100.00;99722.83;1470513;88;21636;-80
2023/01/21 02:09:52;;;;;;;9.00;6.90;;;;;;;0.85;100.00;99719.95;1468516;88;21577;-79
2023/01/21 02:12:20;;;;;;;9.40;7.67;;;;;;;0.83;100.00;99721.34;1467897;88;21318;-79
2023/01/21 02:14:47;;;;;;;10.37;6.17;;;;;;;0.85;100.00;99723.39;1463529;88;21656;-79
2023/01/21 02:17:51;;;;;;;7.57;5.50;;;;;;;0.84;100.00;99720.43;1479177;88;22293;-78
2023/01/21 02:21:02;;;;;;;7.40;6.13;;;;;;;0.84;100.00;99720.91;1426932;88;21866;-80
2023/01/21 02:24:02;;;;;;;7.13;5.37;;;;;;;0.83;100.00;99723.95;1479744;88;22337;-79
2023/01/21 02:27:19;;;;;;;7.40;5.35;;;;;;;0.79;100.00;99726.41;1481047;88;21760;-80
2023/01/21 02:34:12;;;;;;;30.37;14.57;;;;;;;0.73;100.00;99733.34;1476595;88;21781;-80
2023/01/21 02:36:55;;;;;;;13.43;8.80;;;;;;;0.73;100.00;99733.34;1467702;88;21730;-80
2023/01/21 02:39:54;;;;;;;12.13;8.33;;;;;;;0.73;100.00;99729.42;1469689;88;21737;-80
2023/01/21 02:42:38;;;;;;;7.70;5.83;;;;;;;0.76;100.00;99731.83;1470879;88;21614;-79
2023/01/21 02:45:19;;;;;;;7.57;5.93;;;;;;;0.79;100.00;99730.31;1472385;88;21844;-80
2023/01/21 02:48:08;;;;;;;10.28;7.17;;;;;;;0.79;100.00;99734.22;1468886;88;22700;-80
2023/01/21 02:50:49;;;;;;;6.70;5.47;;;;;;;0.80;100.00;99726.77;1463919;88;21530;-81
2023/01/21 02:53:31;;;;;;;6.97;5.50;;;;;;;0.80;100.00;99732.45;1474752;87;21688;-83
2023/01/21 02:56:09;;;;;;;13.63;7.13;;;;;;;0.83;100.00;99725.25;1460917;88;22502;-83
2023/01/21 02:58:40;;;;;;;18.97;10.43;;;;;;;0.89;100.00;99733.98;1466919;88;21664;-82
2023/01/21 03:01:47;;;;;;;23.52;11.35;;;;;;;0.94;100.00;99732.83;1467753;88;21657;-82
2023/01/21 03:04:39;;;;;;;8.00;5.67;;;;;;;1.02;100.00;99739.67;1468874;87;21553;-80
2023/01/21 03:07:25;;;;;;;10.33;6.70;;;;;;;1.09;100.00;99734.39;1467164;88;21842;-81
2023/01/21 03:09:55;;;;;;;15.43;9.13;;;;;;;1.13;100.00;99743.22;1474754;88;21589;-80
2023/01/21 03:12:45;;;;;;;17.50;9.03;;;;;;;1.19;100.00;99741.97;1465174;88;21727;-81
2023/01/21 03:18:29;;;;;;;11.23;7.80;;;;;;;1.25;100.00;99749.84;1468958;88;21638;-81
2023/01/21 03:21:06;;;;;;;10.17;6.83;;;;;;;1.25;100.00;99749.84;1470042;88;22032;-81
2023/01/21 03:23:38;;;;;;;8.03;5.80;;;;;;;1.28;100.00;99744.41;1474580;88;22083;-81
2023/01/21 03:26:07;;;;;;;10.53;6.37;;;;;;;1.31;100.00;99745.03;1447607;90;22784;-80
2023/01/21 03:28:38;;;;;;;10.03;5.83;;;;;;;1.31;100.00;99745.03;1445704;90;21865;-81
2023/01/21 03:31:10;;;;;;;6.27;4.87;;;;;;;1.30;100.00;99740.77;1440415;90;21995;-79
2023/01/21 03:33:40;;;;;;;9.63;6.20;;;;;;;1.35;100.00;99754.33;1447889;90;21414;-81
2023/01/21 03:36:12;;;;;;;10.90;8.00;;;;;;;1.35;100.00;99753.02;1434764;90;21751;-80
2023/01/21 03:38:46;;;;;;;13.73;7.50;;;;;;;1.29;100.00;99756.02;1444124;90;21477;-80
2023/01/21 03:41:18;;;;;;;12.27;7.27;;;;;;;1.13;100.00;99760.16;1442531;90;21781;-80
2023/01/21 03:43:44;;;;;;;9.07;6.20;;;;;;;1.13;100.00;99761.94;1443725;90;21869;-78
2023/01/21 03:46:28;;;;;;;7.73;5.40;;;;;;;1.07;100.00;99763.66;1452958;90;21902;-79
2023/01/21 03:49:03;;;;;;;16.00;9.87;;;;;;;1.11;100.00;99764.63;1429449;90;22924;-80
2023/01/21 03:51:37;;;;;;;22.07;11.60;;;;;;;1.18;100.00;99766.81;1442570;90;21888;-78
2023/01/21 03:54:03;;;;;;;14.43;9.40;;;;;;;1.18;100.00;99766.81;1436298;90;21811;-79
2023/01/21 03:56:30;;;;;;;13.13;8.53;;;;;;;1.19;100.00;99781.06;1445640;90;22011;-79
2023/01/21 03:58:56;;;;;;;12.27;8.07;;;;;;;1.19;100.00;99781.06;1454357;90;21758;-79
2023/01/21 04:01:22;;;;;;;17.50;11.37;;;;;;;1.20;100.00;99784.02;1449240;90;21738;-79
2023/01/21 04:03:49;;;;;;;12.83;8.70;;;;;;;1.20;100.00;99791.02;1450206;90;21775;-79
2023/01/21 04:06:19;;;;;;;10.03;6.50;;;;;;;1.19;100.00;99795.41;1444864;88;21957;-79
2023/01/21 04:08:46;;;;;;;12.20;8.27;;;;;;;1.19;100.00;99795.87;1449130;90;21760;-78
2023/01/21 04:11:12;;;;;;;12.20;7.40;;;;;;;1.18;100.00;99793.75;1444257;90;21798;-79
2023/01/21 04:13:39;;;;;;;9.60;7.37;;;;;;;1.18;100.00;99793.75;1453596;90;21841;-80
2023/01/21 04:16:06;;;;;;;10.60;8.73;;;;;;;1.18;100.00;99791.14;1442969;90;21712;-78
2023/01/21 04:18:33;;;;;;;11.03;8.67;;;;;;;1.20;100.00;99794.45;1443065;90;21756;-80
2023/01/21 04:20:59;;;;;;;9.83;7.00;;;;;;;1.20;100.00;99807.96;1444154;90;21880;-79
2023/01/21 04:23:26;;;;;;;10.77;8.17;;;;;;;1.20;100.00;99807.96;1449619;90;21789;-79
2023/01/21 04:25:52;;;;;;;8.57;6.87;;;;;;;1.17;100.00;99818.13;1446891;90;21942;-80
2023/01/21 04:28:20;;;;;;;10.67;7.90;;;;;;;1.17;100.00;99818.13;1444361;90;21797;-80
2023/01/21 04:30:47;;;;;;;10.00;7.57;;;;;;;1.19;100.00;99830.59;1435443;90;21906;-78
2023/01/21 04:33:13;;;;;;;10.20;7.60;;;;;;;1.19;100.00;99830.59;1450479;90;22745;-78
2023/01/21 04:35:39;;;;;;;11.67;7.80;;;;;;;1.23;100.00;99838.56;1439759;90;21710;-78
2023/01/21 04:38:06;;;;;;;9.23;7.03;;;;;;;1.25;100.00;99846.30;1441152;90;21786;-78
2023/01/21 04:40:32;;;;;;;10.57;7.57;;;;;;;1.25;100.00;99846.30;1442494;90;21847;-78
2023/01/21 04:42:59;;;;;;;17.30;9.77;;;;;;;1.26;100.00;99848.78;1440077;90;21690;-78
2023/01/21 04:45:25;;;;;;;16.73;10.20;;;;;;;1.26;100.00;99846.66;1445480;90;21707;-78
2023/01/21 04:47:51;;;;;;;10.73;7.93;;;;;;;1.27;100.00;99849.17;1451502;90;21724;-78
2023/01/21 04:50:18;;;;;;;10.53;7.03;;;;;;;1.28;100.00;99849.52;1450850;90;21735;-78
2023/01/21 04:52:44;;;;;;;8.87;5.73;;;;;;;1.21;100.00;99849.58;1435736;90;21803;-78
2023/01/21 04:55:11;;;;;;;8.00;6.33;;;;;;;1.21;100.00;99849.58;1446019;90;22671;-78
2023/01/21 04:57:38;;;;;;;10.03;7.83;;;;;;;1.26;100.00;99860.98;1458197;90;22208;-78
2023/01/21 05:00:06;;;;;;;8.80;5.83;;;;;;;1.23;100.00;99867.23;1443502;90;21887;-78
2023/01/21 05:02:33;;;;;;;11.60;7.03;;;;;;;1.25;100.00;99869.28;1446222;90;21770;-78
2023/01/21 05:05:00;;;;;;;8.87;5.93;;;;;;;1.25;100.00;99878.88;1450654;90;22544;-78
2023/01/21 05:07:27;;;;;;;9.37;5.40;;;;;;;1.25;100.00;99882.31;1446232;90;22795;-77
2023/01/21 05:09:53;;;;;;;8.70;6.47;;;;;;;1.28;100.00;99889.94;1443644;90;21711;-78
2023/01/21 05:12:19;;;;;;;8.20;6.20;;;;;;;1.29;100.00;99907.23;1448464;90;21686;-77
2023/01/21 05:14:45;;;;;;;9.63;7.03;;;;;;;1.35;100.00;99913.82;1452625;90;21861;-81
2023/01/21 05:17:12;;;;;;;6.27;5.00;;;;;;;1.39;100.00;99919.69;1446577;90;22650;-80
2023/01/21 05:19:38;;;;;;;6.30;5.00;;;;;;;1.40;100.00;99924.79;1447614;90;21801;-82
2023/01/21 05:22:04;;;;;;;6.10;5.33;;;;;;;1.43;100.00;99934.19;1441890;90;21487;-81
2023/01/21 05:24:30;;;;;;;6.67;5.13;;;;;;;1.45;100.00;99936.23;1424423;90;21712;-82
2023/01/21 05:26:56;;;;;;;9.40;6.73;;;;;;;1.47;100.00;99936.97;1445460;90;21385;-82
2023/01/21 05:29:22;;;;;;;8.40;6.70;;;;;;;1.47;100.00;99947.41;1451948;90;21776;-83
2023/01/21 05:31:49;;;;;;;14.07;9.37;;;;;;;1.45;100.00;99959.70;1447013;90;23481;-80
2023/01/21 05:34:15;;;;;;;8.63;6.50;;;;;;;1.45;100.00;99959.70;1451001;90;21841;-79
2023/01/21 05:36:41;;;;;;;7.37;5.00;;;;;;;1.45;100.00;99959.70;1437538;90;21928;-80
2023/01/21 05:39:08;;;;;;;6.90;5.40;;;;;;;1.48;100.00;99977.28;1445897;90;21685;-80
2023/01/21 05:41:34;;;;;;;5.23;4.27;;;;;;;1.48;100.00;99977.28;1449721;90;21949;-80
2023/01/21 05:44:00;;;;;;;8.70;5.60;;;;;;;1.47;100.00;99974.79;1451037;90;21872;-81
2023/01/21 05:46:26;;;;;;;8.60;5.47;;;;;;;1.50;100.00;99983.72;1447726;90;21909;-83
2023/01/21 05:48:52;;;;;;;7.80;6.07;;;;;;;1.50;100.00;99983.72;1448224;90;21864;-82
2023/01/21 05:51:18;;;;;;;6.70;5.63;;;;;;;1.50;100.00;99986.33;1449675;90;21806;-82
2023/01/21 05:53:45;;;;;;;9.60;6.33;;;;;;;1.52;100.00;100000.08;1445673;90;21355;-81
2023/01/21 05:56:11;;;;;;;9.23;6.03;;;;;;;1.49;100.00;100008.10;1446611;90;22741;-81
2023/01/21 05:58:38;;;;;;;10.37;5.70;;;;;;;1.45;100.00;100010.56;1450188;90;21826;-83
2023/01/21 06:01:04;;;;;;;8.37;6.17;;;;;;;1.42;100.00;100008.16;1454658;90;22019;-83
2023/01/21 06:03:30;;;;;;;7.27;5.33;;;;;;;1.46;100.00;100012.22;1458961;90;21753;-83
2023/01/21 06:05:57;;;;;;;6.23;5.30;;;;;;;1.47;100.00;100013.91;1442756;90;22773;-83
2023/01/21 06:08:23;;;;;;;6.23;5.07;;;;;;;1.44;100.00;100009.73;1440135;90;22781;-83
2023/01/21 06:10:49;;;;;;;7.90;6.27;;;;;;;1.33;100.00;100023.45;1454857;90;22261;-80
2023/01/21 06:13:15;;;;;;;8.10;6.30;;;;;;;1.33;100.00;100023.45;1449445;90;21949;-79
2023/01/21 06:15:42;;;;;;;9.47;6.47;;;;;;;1.28;100.00;100025.51;1445161;90;21828;-80
2023/01/21 06:18:08;;;;;;;7.77;6.60;;;;;;;1.29;100.00;100018.52;1443084;90;22785;-79
2023/01/21 06:20:35;;;;;;;6.93;5.43;;;;;;;1.29;100.00;100018.52;1448985;90;23218;-80
2023/01/21 06:23:02;;;;;;;9.43;5.63;;;;;;;1.29;100.00;100019.34;1445420;90;21847;-79
2023/01/21 06:25:30;;;;;;;8.23;6.30;;;;;;;1.28;100.00;100018.98;1446949;90;21550;-80
2023/01/21 06:27:57;;;;;;;9.23;6.93;;;;;;;1.28;100.00;100018.98;1447446;90;21758;-79
2023/01/21 06:30:25;;;;;;;8.60;6.97;;;;;;;1.27;100.00;100016.02;1445551;90;21868;-78
2023/01/21 06:32:51;;;;;;;8.37;6.23;;;;;;;1.24;100.00;100014.92;1445455;90;22234;-78
2023/01/21 06:35:18;;;;;;;8.87;6.83;;;;;;;1.21;100.00;100023.37;1447341;90;21702;-79
2023/01/21 06:37:45;;;;;;;12.83;7.07;;;;;;;1.21;100.00;100023.37;1443698;90;22730;-79
2023/01/21 06:40:13;;;;;;;10.07;7.30;;;;;;;1.26;100.00;100041.70;1444258;90;21780;-79
2023/01/21 06:42:39;;;;;;;8.67;6.53;;;;;;;1.26;100.00;100041.70;1445220;90;21840;-80
2023/01/21 06:45:07;;;;;;;11.53;6.73;;;;;;;1.30;100.00;100044.98;1442645;90;22856;-80
2023/01/21 06:47:34;;;;;;;6.70;5.60;;;;;;;1.35;100.00;100040.28;1449711;90;22082;-79
2023/01/21 06:50:00;;;;;;;8.63;6.43;;;;;;;1.44;100.00;100047.98;1453552;90;21743;-80
2023/01/21 06:52:26;;;;;;;9.10;7.07;;;;;;;1.51;100.00;100052.72;1446371;90;21812;-78
2023/01/21 06:54:52;;;;;;;9.43;7.57;;;;;;;1.60;100.00;100059.58;1446689;90;21846;-78
2023/01/21 06:57:19;;;;;;;9.87;7.67;;;;;;;1.60;100.00;100059.58;1442212;90;21813;-77
2023/01/21 06:59:46;;;;;;;10.57;7.63;;;;;;;1.62;100.00;100067.68;1443247;90;22735;-77
2023/01/21 07:02:12;;;;;;;8.33;7.37;;;;;;;1.64;100.00;100066.27;1448950;90;21880;-78
2023/01/21 07:04:38;;;;;;;9.90;7.37;;;;;;;1.65;100.00;100061.44;1448692;90;22024;-77
2023/01/21 07:07:04;;;;;;;10.80;7.50;;;;;;;1.65;100.00;100061.44;1445387;90;21944;-76
2023/01/21 07:09:31;;;;;;;17.20;10.30;;;;;;;1.75;100.00;100080.75;1456769;90;22167;-77
2023/01/21 07:11:57;;;;;;;14.93;8.80;;;;;;;1.80;100.00;100084.73;1451822;90;22937;-77
2023/01/21 07:14:23;;;;;;;14.80;9.80;;;;;;;1.87;100.00;100086.95;1449035;90;22728;-77
2023/01/21 07:16:50;;;;;;;11.63;8.23;;;;;;;1.93;100.00;100095.23;1440209;90;22070;-77
2023/01/21 07:19:16;;;;;;;11.27;8.77;;;;;;;1.99;100.00;100087.47;1444868;90;21920;-76
2023/01/21 07:21:42;;;;;;;13.40;9.97;;;;;;;2.06;100.00;100100.47;1454061;90;21898;-77
2023/01/21 07:24:08;;;;;;;18.70;13.10;;;;;;;2.08;100.00;100100.38;1450929;90;22219;-79
2023/01/21 07:26:36;;;;;;;15.70;11.13;;;;;;;2.07;100.00;100097.38;1445694;90;21910;-79
2023/01/21 07:29:05;;;;;;;20.60;14.73;;;;;;;2.07;100.00;100097.38;1447562;90;22034;-79
2023/01/21 07:31:33;;;;;;;20.27;14.80;;;;;;;2.14;100.00;100099.49;1446395;90;22993;-79
2023/01/21 07:34:00;;;;;;;24.70;18.10;;;;;;;2.14;100.00;100098.66;1446457;90;23036;-79
2023/01/21 07:36:26;;;;;;;29.63;21.90;;;;;;;2.22;100.00;100102.44;1449908;90;22016;-80
2023/01/21 07:38:54;;;;;;;23.83;18.27;;;;;;;2.22;100.00;100102.44;1448553;90;22159;-79
2023/01/21 07:41:20;;;;;;;17.20;12.87;;;;;;;2.25;100.00;100103.54;1445707;90;22222;-80
2023/01/21 07:43:50;;;;;;;19.77;12.10;;;;;;;2.29;100.00;100108.55;1444811;90;22147;-80
2023/01/21 07:46:21;;;;;;;12.73;9.83;;;;;;;2.31;100.00;100118.44;1445535;90;22741;-80
2023/01/21 07:48:49;;;;;;;;;;;;;;;2.31;100.00;100121.05;1453943;90;22121;-80
2023/01/21 07:51:16;;;;;;;41.77;25.63;;;;;;;2.33;100.00;100118.70;1450250;90;20285;-80
2023/01/21 07:53:43;;;;;;;32.47;18.60;;;;;;;2.38;100.00;100127.52;1445255;90;22932;-79
2023/01/21 07:56:09;;;;;;;32.20;14.13;;;;;;;2.42;100.00;100127.22;1445745;90;22127;-79
2023/01/21 07:58:37;;;;;;;22.07;12.23;;;;;;;2.49;100.00;100126.33;1445619;90;22177;-80
2023/01/21 08:01:08;;;;;;;18.33;10.70;;;;;;;2.53;100.00;100138.23;1445400;90;22066;-78
2023/01/21 08:03:36;;;;;;;15.77;10.27;;;;;;;2.57;100.00;100148.03;1441924;90;22071;-78
2023/01/21 08:06:04;;;;;;;11.93;9.07;;;;;;;2.59;100.00;100148.30;1428042;90;22072;-78
2023/01/21 08:08:32;;;;;;;15.30;9.87;;;;;;;2.61;100.00;100149.02;1431940;90;23111;-78
2023/01/21 08:10:58;;;;;;;14.80;10.20;;;;;;;2.55;100.00;100152.04;1452479;90;22262;-78
2023/01/21 08:13:25;;;;;;;13.40;9.63;;;;;;;2.55;100.00;100156.44;1447344;90;22100;-77
2023/01/21 08:15:53;;;;;;;11.00;8.87;;;;;;;2.56;100.00;100155.48;1442261;90;22292;-78
2023/01/21 08:18:21;;;;;;;20.27;12.87;;;;;;;2.53;100.00;100155.22;1448295;90;22150;-77
2023/01/21 08:20:48;;;;;;;15.03;9.03;;;;;;;2.57;100.00;100160.62;1443721;90;22014;-78
2023/01/21 08:23:14;;;;;;;11.07;7.37;;;;;;;2.59;100.00;100161.37;1449622;90;22128;-76
2023/01/21 08:25:40;;;;;;;10.53;7.10;;;;;;;2.63;100.00;100174.58;1451136;90;22124;-77
2023/01/21 08:28:07;;;;;;;7.40;4.63;;;;;;;2.62;100.00;100176.00;1446864;90;23563;-77
2023/01/21 08:30:33;;;;;;;7.27;3.53;;;;;;;2.58;100.00;100171.43;1455437;90;21320;-78
2023/01/21 08:32:59;;;;;;;4.23;3.23;;;;;;;2.51;100.00;100177.19;1441420;90;22264;-77
2023/01/21 08:35:25;;;;;;;3.17;2.57;;;;;;;2.47;100.00;100180.00;1443301;90;22027;-77
2023/01/21 08:37:56;;;;;;;5.13;3.50;;;;;;;2.47;100.00;100179.14;1448242;90;22084;-79
2023/01/21 08:40:25;;;;;;;12.47;7.47;;;;;;;2.53;100.00;100190.48;1447728;90;22137;-79
2023/01/21 08:42:59;;;;;;;12.83;5.77;;;;;;;2.62;100.00;100187.28;1443771;90;21370;-77
2023/01/21 08:45:26;;;;;;;10.47;7.23;;;;;;;2.88;100.00;100191.23;1444072;90;22309;-77
2023/01/21 08:47:53;;;;;;;4.60;3.23;;;;;;;2.88;100.00;100191.23;1450089;90;21923;-78
2023/01/21 08:50:19;;;;;;;12.13;7.97;;;;;;;3.07;100.00;100209.92;1447981;90;21369;-77
2023/01/21 08:52:54;;;;;;;4.47;2.90;;;;;;;3.11;100.00;100203.56;1431666;90;21445;-76
2023/01/21 08:55:25;;;;;;;6.33;3.70;;;;;;;3.11;100.00;100203.56;1451680;90;22177;-78
2023/01/21 08:57:52;;;;;;;3.98;2.40;;;;;;;3.16;99.13;100210.63;1449308;90;21407;-77
2023/01/21 09:00:20;;;;;;;13.10;8.40;;;;;;;3.20;98.96;100213.03;1448092;90;22332;-77
2023/01/21 09:02:46;;;;;;;4.90;3.17;;;;;;;3.12;97.34;100209.15;1452947;90;21378;-80
2023/01/21 09:05:13;;;;;;;4.03;2.63;;;;;;;3.10;96.79;100203.17;1449440;90;21459;-79
2023/01/21 09:07:40;;;;;;;3.53;2.40;;;;;;;3.15;98.01;100198.48;1444054;90;22457;-80
2023/01/21 09:10:07;;;;;;;14.80;8.90;;;;;;;3.24;97.53;100201.41;1442603;90;22486;-78
2023/01/21 09:12:34;;;;;;;3.37;2.57;;;;;;;3.27;97.14;100204.64;1453593;90;22259;-78
2023/01/21 09:15:00;;;;;;;10.53;3.47;;;;;;;3.30;97.65;100214.05;1446471;90;21378;-78
2023/01/21 09:17:26;;;;;;;5.83;4.07;;;;;;;3.29;97.17;100225.47;1443301;90;21441;-86
2023/01/21 09:19:53;;;;;;;4.80;3.00;;;;;;;3.28;96.68;100230.31;1448882;90;21371;-72
2023/01/21 09:22:19;;;;;;;6.60;3.70;;;;;;;3.25;97.03;100232.70;1444579;90;21540;-73
2023/01/21 09:24:57;;;;;;;5.57;4.13;;;;;;;3.30;97.18;100229.75;1442013;90;21348;-74
2023/01/21 09:27:26;;;;;;;5.07;3.47;;;;;;;3.33;97.58;100229.53;1443326;90;21533;-73
2023/01/21 09:29:52;;;;;;;3.57;2.10;;;;;;;3.38;96.35;100226.13;1444881;90;21449;-73
2023/01/21 09:32:18;;;;;;;5.00;3.07;;;;;;;3.45;96.46;100227.37;1447845;90;22301;-72
2023/01/21 09:34:44;;;;;;;3.50;2.30;;;;;;;3.51;96.00;100216.50;1426938;90;21615;-80
2023/01/21 09:37:10;;;;;;;2.97;2.10;;;;;;;3.56;95.19;100227.45;1445170;90;21400;-81
2023/01/21 09:39:36;;;;;;;3.13;2.17;;;;;;;3.58;95.16;100221.65;1449005;90;21392;-80
2023/01/21 09:42:03;;;;;;;4.03;3.33;;;;;;;3.64;95.36;100212.53;1446572;90;22404;-82
2023/01/21 09:44:42;;;;;;;8.53;6.83;;;;;;;3.66;94.17;100215.06;1443609;90;22421;-83
2023/01/21 09:47:31;;;;;;;6.03;4.50;;;;;;;3.69;92.60;100218.77;1444210;90;22397;-80
2023/01/21 09:50:15;;;;;;;8.17;6.03;;;;;;;3.79;92.62;100222.38;1429269;90;21429;-81
2023/01/21 09:52:51;;;;;;;4.03;3.00;;;;;;;3.90;92.86;100223.77;1369090;90;21320;-83
2023/01/21 09:55:22;;;;;;;2.93;2.20;;;;;;;3.97;92.43;100234.18;1527921;90;21239;-80
2023/01/21 09:58:11;;;;;;;4.83;2.87;;;;;;;3.93;88.26;100234.50;1369195;90;21246;-82
2023/01/21 10:00:53;;;;;;;4.40;3.07;;;;;;;3.98;89.44;100237.63;1527925;90;22038;-80
2023/01/21 10:03:43;;;;;;;6.30;3.10;;;;;;;4.06;90.85;100230.89;1379130;90;21460;-82
2023/01/21 10:06:51;;;;;;;3.67;2.57;;;;;;;4.04;88.71;100235.40;1371949;90;21296;-81
2023/01/21 10:09:38;;;;;;;3.20;2.47;;;;;;;3.81;84.30;100237.52;1372209;90;21356;-81
2023/01/21 10:12:19;;;;;;;4.30;2.87;;;;;;;3.88;88.82;100238.73;1527481;90;21460;-82
2023/01/21 10:15:17;;;;;;;45.78;25.20;;;;;;;3.97;90.12;100235.94;1420545;90;21393;-80
2023/01/21 10:18:10;;;;;;;19.00;12.73;;;;;;;4.04;90.02;100235.40;1376679;90;21500;-81
2023/01/21 10:20:56;;;;;;;9.20;7.53;;;;;;;4.21;90.95;100237.28;1528036;90;21171;-79
2023/01/21 10:23:33;;;;;;;4.00;2.87;;;;;;;4.33;89.89;100239.48;1372069;90;22119;-79
2023/01/21 10:26:03;;;;;;;3.17;2.50;;;;;;;4.44;86.49;100236.91;1527900;90;21247;-80
2023/01/21 10:28:29;;;;;;;4.05;2.92;;;;;;;4.52;86.49;100226.22;1370318;90;21371;-80
2023/01/21 10:31:07;;;;;;;2.67;2.00;;;;;;;4.70;88.00;100226.63;1526719;90;21431;-80
2023/01/21 10:37:37;;;;;;;4.33;2.47;;;;;;;4.81;85.34;100241.56;1527863;90;21547;-79
2023/01/21 10:40:42;;;;;;;3.73;2.73;;;;;;;4.78;84.86;100243.11;1369625;90;22134;-81
2023/01/21 10:43:04;;;;;;;6.87;4.40;;;;;;;4.89;86.03;100244.90;1362699;96;21363;-83
2023/01/21 10:45:54;;;;;;;12.13;7.83;;;;;;;4.92;85.93;100238.11;1527638;90;22184;-82
2023/01/21 10:48:44;;;;;;;164.37;102.10;;;;;;;5.08;84.73;100237.31;1527899;90;21297;-83
2023/01/21 10:51:49;;;;;;;43.30;28.30;;;;;;;5.46;83.85;100224.82;1527907;90;22044;-82
2023/01/21 10:54:35;;;;;;;15.77;9.40;;;;;;;5.92;80.21;100223.81;1370347;91;21275;-81
2023/01/21 10:57:16;;;;;;;8.67;5.30;;;;;;;6.29;77.15;100221.23;1516000;90;21282;-82
2023/01/21 10:59:42;;;;;;;3.83;3.42;;;;;;;6.59;73.99;100219.69;1377259;91;21312;-83
2023/01/21 11:02:23;;;;;;;6.27;4.57;;;;;;;6.63;71.74;100219.78;1378859;90;22126;-83
2023/01/21 11:04:50;;;;;;;30.70;20.27;;;;;;;6.49;74.30;100221.39;1527619;90;21471;-83
2023/01/21 11:07:20;;;;;;;12.67;9.87;;;;;;;6.40;75.26;100226.10;1382997;90;21276;-82
2023/01/21 11:09:47;;;;;;;4.03;2.67;;;;;;;6.35;76.03;100220.37;1527902;90;21209;-82
2023/01/21 11:12:18;;;;;;;5.50;2.23;;;;;;;6.13;73.51;100229.16;1372244;90;21364;-80
2023/01/21 11:15:09;;;;;;;;;;;;;;;5.69;72.84;100219.91;1372759;91;21393;-79
2023/01/21 11:17:39;;;;;;;4.15;3.45;;;;;;;5.39;74.17;100221.36;1516287;90;20226;-81
2023/01/21 11:20:34;;;;;;;7.53;3.93;;;;;;;5.24;76.87;100219.11;1369568;90;22179;-90
2023/01/21 11:23:07;;;;;;;3.87;2.60;;;;;;;5.11;77.54;100223.13;1318928;95;21453;-90
2023/01/21 11:25:42;;;;;;;3.50;2.90;;;;;;;4.97;78.02;100225.02;1493889;90;22454;-90
2023/01/21 11:28:24;;;;;;;7.00;5.30;;;;;;;4.87;78.73;100221.91;1527983;90;21283;-90
2023/01/21 11:31:03;;;;;;;3.20;2.17;;;;;;;4.79;80.13;100222.96;1357268;92;22236;-87
2023/01/21 11:33:29;;;;;;;2.83;1.87;;;;;;;4.60;78.10;100216.94;1376424;90;21452;-89
2023/01/21 11:35:57;;;;;;;2.33;2.07;;;;;;;4.30;78.77;100214.33;1373327;90;22215;-88
2023/01/21 11:38:35;;;;;;;4.33;3.03;;;;;;;4.23;80.33;100207.41;1414934;90;21334;-90
2023/01/21 11:41:18;;;;;;;4.33;2.33;;;;;;;4.20;80.89;100204.16;1503347;90;21283;-88
2023/01/21 11:43:49;;;;;;;2.60;2.20;;;;;;;3.93;79.67;100202.59;1429049;90;22450;-89
2023/01/21 11:46:34;;;;;;;;;;;;;;;3.75;81.74;100202.14;1447159;90;21473;-89
2023/01/21 11:49:12;;;;;;;4.30;3.10;;;;;;;3.79;83.35;100192.28;1443952;90;20285;-90
2023/01/21 11:51:44;;;;;;;4.83;2.83;;;;;;;3.95;84.46;100191.55;1428136;90;21563;-88
2023/01/21 11:54:23;;;;;;;3.27;2.57;;;;;;;4.06;84.83;100193.40;1513254;90;21384;-90
2023/01/21 11:56:58;;;;;;;5.13;3.90;;;;;;;4.15;85.68;100200.58;1369254;90;22395;-87
2023/01/21 11:59:37;;;;;;;4.47;3.20;;;;;;;4.26;83.65;100203.25;1528156;90;21188;-89